Tiempo atmosférico en la estación meteorológica de Xàtiva, València/Valencia (88 m.)



Fecha
DESCASC
Temp. máxima en grados centígrados (hora)
DESCASC
Temp. mínima en grados centígrados (hora)
DESCASC
Temp. media en grados centígrados
DESCASC
Racha de viento máxima en m/sg (hora)
DESCASC
Velocidad máxima media en intervalos de 10 minutos(hora)
DESCASC
Precipitaciones diarias en mm
DESCASC
Precipitaciones de 00:00 a 06:00 en mm
DESCASC
Precipitaciones de 06:00 a 12:00 en mm
DESCASC
Precipitaciones de 12:00 a 18:00 en mm
DESCASC
Precipitaciones de 18:00 a 24:00 en mm
DESCASC
13-06-2019 24.6 (18:10) 17 (01:10) 20.8 8.89 (14:10) 5.83 (14:10) 0 0 0 0 0
12-06-2019 25.3 (18:30) 11.4 (06:30) 18.3 12.5 (14:50) 6.39 (16:10) 0 0 0 0 0
11-06-2019 25.2 (13:00) 16.1 (23:59) 20.7 11.39 (16:10) 7.78 (16:10) 0 0 0 0 0
10-06-2019 30.9 (16:20) 15.1 (04:30) 23 9.17 (20:20) 6.11 (20:10) 0 0 0 0 0
09-06-2019 31.7 (19:10) 15.1 (00:00) 23.4 6.39 (20:50) 3.89 (19:50) 0 0 0 0 0
08-06-2019 23 (15:30) 17.2 (00:00) 20.1 9.72 (10:40) 5.56 (10:50) 0 0 0 0 0
07-06-2019 32.3 (18:40) 15.6 (00:00) 23.9 13.61 (12:40) 6.11 (14:10) 0 0 0 0 0
06-06-2019 28.1 (18:30) 11.8 (00:00) 20 10.56 (15:10) 6.39 (16:10) 0 0 0 0 0
05-06-2019 29.7 (17:30) 16.8 (00:00) 23.3 18.33 (13:30) 10.83 (14:10) 0 0 0 0 0
04-06-2019 32.6 (17:10) 14.9 (00:00) 23.7 10.56 (18:50) 6.39 (18:50) 0 0 0 0 0
03-06-2019 33.7 (16:30) 13.7 (00:00) 23.7 8.89 (18:10) 5 (15:00) 0 0 0 0 0
02-06-2019 32.7 (15:10) 12.3 (00:00) 22.5 8.33 (18:40) 5.28 (19:20) 0 0 0 0 0
01-06-2019 31 (16:30) 12.7 (00:00) 21.8 7.78 (15:40) 4.17 (18:30) 0 0 0 0 0
31-05-2019 29.7 (17:10) 13.5 (00:00) 21.6 8.06 (17:30) 4.72 (16:40) 0 0 0 0 0
30-05-2019 29.4 (16:10) 11.1 (00:00) 20.3 8.33 (17:40) 4.72 (17:50) 0 0 0 0 0
29-05-2019 26.6 (16:50) 12.4 (00:00) 19.5 10.83 (18:30) 5 (16:50) 0 0 0 0 0
28-05-2019 28.3 (17:00) 14.4 (00:00) 21.3 8.33 (16:00) 4.72 (17:40) 0 0 0 0 0
27-05-2019 31.5 (17:20) 13 (00:00) 22.3 11.94 (18:30) 5.56 (20:30) 0 0 0 0 0
26-05-2019 26.8 (15:10) 12.9 (00:00) 19.8 8.61 (15:10) 5.28 (16:30) 0 0 0 0 0
25-05-2019 23.9 (18:50) 14.9 (00:00) 19.4 6.39 (16:10) 3.33 (12:10) 0.2 0 0 0.2 0
24-05-2019 18.6 (09:20) 15.4 (00:00) 17 11.39 (15:20) 6.67 (15:30) 3.2 0 0 3.2 0
23-05-2019 33.3 (17:10) 13 (00:00) 23.1 8.89 (18:30) 5.28 (18:30) -- -- -- -- --
22-05-2019 29.5 (18:30) 12.2 (00:00) 20.8 8.33 (19:20) 5.28 (18:40) -- -- -- -- --
21-05-2019 28.1 (17:00) 15.3 (23:59) 21.7 16.94 (19:00) 10.83 (19:00) -- -- -- -- --
20-05-2019 28.3 (16:00) 10.3 (06:10) 19.3 10.28 (17:40) 6.67 (17:40) -- -- -- -- --
19-05-2019 25.1 (13:40) 9.6 (00:00) 17.4 11.11 (13:40) 6.11 (13:50) -- -- -- -- --
18-05-2019 23.2 (13:00) 12.3 (00:00) 17.8 8.61 (13:00) 5 (13:30) -- -- -- -- --
17-05-2019 26 (16:20) 14.8 (00:00) 20.4 17.5 (10:40) 9.72 (10:40) -- -- -- -- --

Gráficas

Temp. máximas Temp. mínimas Temp. medias Precipitaciones Rachas de viento máximas Velocidades máximas media en intervalos de 10 minutos

Datos horarios

Fecha y hora oficial Temperatura (ºC) Velocidad del viento (km/h) Dirección del viento Racha (km/h) Dirección de racha Precipitación (mm) Presión (hPa) Tendencia (hPa) Humedad (%)
2019-06-15 23:00:00 21.1 12 Nordeste 23 Nordeste 0 1007.7 3.5 60
2019-06-15 22:00:00 24.6 11 Norte 19 Nordeste 0 1005.8 2.1 41
2019-06-15 21:00:00 29 7 Nordeste 23 Nordeste 0 1004.8 1.4 26
2019-06-15 20:00:00 30.8 11 Nordeste 26 Nordeste 0 1004.2 0.3 21
2019-06-15 19:00:00 31.6 15 Nordeste 28 Este 0 1003.7 -0.7 19
2019-06-15 18:00:00 34.8 12 Oeste 35 Oeste 0 1003.4 -1.6 11
2019-06-15 17:00:00 33.8 13 Oeste 33 Oeste 0 1003.9 -2 10
2019-06-15 16:00:00 33.1 9 Oeste 26 Sudoeste 0 1004.4 -2.2 12
2019-06-15 15:00:00 31.7 12 Oeste 23 Oeste 0 1005 -2 14
2019-06-15 14:00:00 29.9 6 Noroeste 22 Oeste 0 1005.9 -1.4 18
2019-06-15 13:00:00 28.4 6 Sur 26 Sur 0 1006.6 -0.9 19
2019-06-15 12:00:00 27.4 11 Noroeste 26 Oeste 0 1007 0 21
2019-06-15 11:00:00 25.5 9 Oeste 25 Oeste 0 1007.3 1 23
2019-06-15 10:00:00 23.6 10 Sudoeste 21 Sudoeste 0 1007.5 1.7 25
2019-06-15 09:00:00 21.7 10 Sudoeste 17 Sudoeste 0 1007 1.9 31
2019-06-15 08:00:00 19.6 8 Sudoeste 20 Sudoeste 0 1006.3 1.8 36
2019-06-15 07:00:00 19.3 7 Sudoeste 17 Sudoeste 0 1005.8 1.5 34
2019-06-15 06:00:00 17.9 6 Oeste 18 Sudoeste 0 1005.1 1 40
2019-06-15 05:00:00 19.2 8 Oeste 16 Sudoeste 0 1004.5 0.8 34
2019-06-15 04:00:00 20.4 5 Oeste 17 Sudoeste 0 1004.3 1.1 32
2019-06-15 03:00:00 21.7 10 Oeste 19 Oeste 0 1004.1 1.6 25
2019-06-15 02:00:00 23.7 10 Sudoeste 20 Sudoeste 0 1003.7 1.9 18
2019-06-15 01:00:00 25.4 11 Sudoeste 27 Sudoeste 0 1003.2 2.5 20
2019-06-15 00:00:00 25.8 14 Sudoeste 22 Sudoeste 0 1002.5 3 30
2019-06-14 23:00:00 26.1 4 Oeste 20 Oeste 0 1001.8 3.3 37
2019-06-14 22:00:00 28.4 10 Oeste 30 Sudoeste 0 1000.7 2.7 32
2019-06-14 21:00:00 31.5 12 Sudoeste 23 Sudoeste 0 999.5 1 26
2019-06-14 20:00:00 32.7 13 Nordeste 28 Sudoeste 0 998.5 -0.2 23
2019-06-14 19:00:00 35.4 13 Sudoeste 36 Oeste 0 998 -0.9 12
2019-06-14 18:00:00 35.2 10 Sudoeste 48 Sudoeste 0 998.5 -0.6 14
2019-06-14 17:00:00 34.7 18 Sudoeste 35 Oeste 0 998.7 -1.1 12
2019-06-14 16:00:00 34.4 19 Oeste 44 Sudoeste 0 998.9 -1.4 14
2019-06-14 15:00:00 32.7 7 Noroeste 21 Oeste 0 999.1 -1.7 16
2019-06-14 14:00:00 31.2 5 Norte 18 Sudoeste 0 999.8 -1.1 19
2019-06-14 13:00:00 29.3 7 Sur 19 Sudeste 0 1000.3 -0.3 25
2019-06-14 12:00:00 26.8 5 Este 16 Sur 0 1000.8 0.1 33
2019-06-14 11:00:00 24.6 5 Oeste 16 Sudoeste 0 1000.9 0.1 37
2019-06-14 10:00:00 21.7 2 Sudeste 15 Sur 0 1000.6 0.1 40
2019-06-14 09:00:00 19.5 4 Sudeste 12 Oeste 0 1000.7 1.7 48
2019-06-14 08:00:00 16.9 6 Oeste 17 Oeste 0 1000.8 0.7 55
2019-06-14 07:00:00 16 8 Oeste 22 Norte 0 1000.5 0.4 71
2019-06-14 06:00:00 15.7 6 Noroeste 12 Sur 0 999 -1.1 78
2019-06-14 05:00:00 15.8 5 Oeste 15 Sudoeste 0 1000.1 -0.6 76
2019-06-14 04:00:00 16.2 10 Sudoeste 15 Sudoeste 0 1000.1 -1.5 75
2019-06-14 03:00:00 15.6 7 Oeste 12 Oeste 0 1000.1 -2 79
2019-06-14 02:00:00 16.7 6 Sudoeste 14 Oeste 0 1000.7 -1 75
2019-06-14 01:00:00 16.9 7 Oeste 10 Oeste 0 1001.6 0.6 75
2019-06-14 00:00:00 17.4 4 Oeste 8 Norte 0 1002.1 1.3 68
2019-06-13 23:00:00 18 6 Norte 12 Norte 0 1001.7 1.3 62
2019-06-13 22:00:00 19.2 6 Norte 18 Este 0 1001 0.5 60
2019-06-13 21:00:00 21.5 13 Este 23 Este 0 1000.8 0 51
2019-06-13 20:00:00 23 15 Este 28 Este 0 1000.4 -0.6 47
2019-06-13 19:00:00 23.4 14 Nordeste 27 Nordeste 0 1000.5 -1 46
2019-06-13 18:00:00 24.3 11 Nordeste 27 Este 0 1000.8 -1 41
2019-06-13 17:00:00 23.6 14 Nordeste 31 Este 0 1001 -1.2 44
2019-06-13 16:00:00 23.6 19 Nordeste 31 Sudeste 0 1001.5 -1.1 46
2019-06-13 15:00:00 23.5 18 Este 32 Nordeste 0 1001.8 -1.5 45
2019-06-13 14:00:00 22.8 21 Este 31 Este 0 1002.2 -1.7 52
2019-06-13 13:00:00 22 16 Nordeste 26 Este 0 1002.6 -1.7 60
2019-06-13 12:00:00 21.5 6 Norte 18 Nordeste 0 1003.3 -0.1 64
2019-06-13 11:00:00 18.7 5 Norte 22 Nordeste 0 1003.9 0.8 75
2019-06-13 10:00:00 17.8 3 Noroeste 14 Norte 0 1004.3 1.5 79
2019-06-13 09:00:00 17.8 9 Norte 15 Norte 0 1003.4 0.9 72
2019-06-13 08:00:00 17.5 2 Sudeste 8 Norte 0 1003.1 0.7 79
2019-06-13 07:00:00 17.4 5 Norte 12 Nordeste 0 1002.8 0.3 79
2019-06-13 06:00:00 17.4 5 Nordeste 12 Norte 0 1002.5 -0.8 81
2019-06-13 05:00:00 17.5 6 Norte 18 Norte 0 1002.4 -1.2 81
2019-06-13 04:00:00 17.7 9 Norte 17 Norte 0 1002.5 -1.2 84
2019-06-13 03:00:00 18.2 4 Norte 10 Norte 0 1003.3 -0.3 86
2019-06-13 02:00:00 17.6 6 Sudoeste 10 Oeste 0 1003.6 0.1 85
2019-06-13 01:00:00 17.1 7 Oeste 10 Oeste 0 1003.7 1 84
2019-06-13 00:00:00 17.7 2 Noroeste 8 Oeste 0 1003.6 1.3 80
2019-06-12 23:00:00 18.3 5 Oeste 12 Norte 0 1003.5 1.8 75
2019-06-12 22:00:00 19.2 7 Norte 15 Este 0 1002.7 1.1 69
2019-06-12 21:00:00 21.5 11 Nordeste 23 Nordeste 0 1002.3 0.1 55
2019-06-12 20:00:00 23.6 12 Este 26 Sudeste 0 1001.7 -0.8 43
2019-06-12 19:00:00 24.8 14 Nordeste 24 Nordeste 0 1001.6 -1.1 32
2019-06-12 18:00:00 24.7 15 Nordeste 29 Nordeste 0 1002.2 -1 32
2019-06-12 17:00:00 24.3 19 Nordeste 38 Nordeste 0 1002.5 -1.3 34
2019-06-12 16:00:00 23.9 22 Nordeste 36 Nordeste 0 1002.7 -1.8 38
2019-06-12 15:00:00 24.4 14 Nordeste 45 Nordeste 0 1003.2 -1.8 36
2019-06-12 14:00:00 23.7 8 Nordeste 19 Norte 0 1003.8 -1.7 35
2019-06-12 13:00:00 22.5 9 Norte 24 Nordeste 0 1004.5 -1.1 39
2019-06-12 12:00:00 21.7 5 Nordeste 18 Norte 0 1005 -0.6 42
2019-06-12 11:00:00 19.8 9 Nordeste 18 Nordeste 0 1005.5 0.2 49
2019-06-12 10:00:00 19.4 5 Noroeste 11 Oeste 0 1005.6 0.8 54
2019-06-12 09:00:00 16 3 Oeste 8 Oeste 0 1005.6 1.4 68
2019-06-12 08:00:00 13.4 4 Oeste 9 Oeste 0 1005.3 1.5 79
2019-06-12 07:00:00 11.6 5 Oeste 11 Oeste 0 1004.8 0.9 86
2019-06-12 06:00:00 11.6 7 Oeste 12 Oeste 0 1004.2 0.2 87
2019-06-12 05:00:00 12.2 9 Oeste 14 Oeste 0 1003.8 -0.5 82
2019-06-12 04:00:00 13.2 6 Oeste 12 Oeste 0 1003.9 -0.6 78
2019-06-12 03:00:00 14 2 Oeste 8 Noroeste 0 1004 -0.5 79
2019-06-12 02:00:00 15.3 2 Sudoeste 7 Noroeste 0 1004.3 0 71
2019-06-12 01:00:00 15.8 0 Calma 7 Oeste 0 1004.5 0.9 67
2019-06-12 00:00:00 16.1 4 Oeste 10 Sur 0 1004.5 1.1 64
2019-06-11 23:00:00 17.4 5 Sudeste 15 Sudeste 0 1004.3 1.4 57
2019-06-11 22:00:00 17.7 7 Sudeste 22 Sudeste 0 1003.6 1.7 57
2019-06-11 21:00:00 18 13 Sudeste 25 Sudeste 0 1003.4 1.9 56
2019-06-11 20:00:00 18.2 18 Este 28 Este 0 1002.9 2.1 56
2019-06-11 19:00:00 19.1 15 Este 30 Este 0 1001.9 2 50
2019-06-11 18:00:00 19.5 20 Este 34 Nordeste 0 1001.5 2.5 53
2019-06-11 17:00:00 20.2 21 Nordeste 41 Este 0 1000.8 1.8 50
2019-06-11 16:00:00 21.9 26 Este 40 Este 0 999.9 0.8 48
2019-06-11 15:00:00 24.2 22 Este 36 Este 0 999 -0.4 43
2019-06-11 14:00:00 25.1 16 Nordeste 37 Norte 0 999 -0.9 41
2019-06-11 13:00:00 25 17 Norte 32 Nordeste 0 999.1 -0.7 41
2019-06-11 12:00:00 23.2 13 Este 28 Nordeste 0 999.4 -0.8 46
2019-06-11 11:00:00 21.9 12 Norte 25 Nordeste 0 999.9 -0.1 56
2019-06-11 10:00:00 22.2 5 Norte 14 Oeste 0 999.8 0 57
2019-06-11 09:00:00 19.3 6 Oeste 12 Oeste 0 1000.2 0.7 71
2019-06-11 08:00:00 18 7 Oeste 11 Oeste 0 1000 0.1 78
2019-06-11 07:00:00 17.5 7 Oeste 11 Oeste 0 999.8 -0.8 81
2019-06-11 06:00:00 17.7 4 Noroeste 9 Oeste 0 999.5 -1.7 80
2019-06-11 05:00:00 18.4 6 Oeste 8 Oeste 0 999.9 -1.7 80
2019-06-11 04:00:00 19 5 Oeste 10 Oeste 0 1000.6 -1.5 79
2019-06-11 03:00:00 19.1 7 Oeste 12 Oeste 0 1001.2 -1.1 77
2019-06-11 02:00:00 19.1 6 Oeste 11 Noroeste 0 1001.6 -0.5 76
2019-06-11 01:00:00 19.7 6 Noroeste 12 Noroeste 0 1002.1 0.8 75
2019-06-11 00:00:00 19.8 3 Oeste 15 Norte 0 1002.3 2 76
2019-06-10 23:00:00 20 3 Norte 16 Noroeste 0 1002.1 2.6 78
2019-06-10 22:00:00 21.2 7 Norte 24 Norte 0 1001.3 1.9 71
2019-06-10 21:00:00 24.7 5 Norte 33 Norte 0 1000.3 0.6 54
2019-06-10 20:00:00 28.5 17 Norte 28 Norte 0 999.5 -0.5 40
2019-06-10 19:00:00 29.5 14 Este 27 Este 0 999.4 -1.1 31
2019-06-10 18:00:00 29.5 15 Sudeste 26 Sudeste 0 999.7 -1.5 29
2019-06-10 17:00:00 30.7 11 Este 31 Norte 0 1000 -2.1 26
2019-06-10 16:00:00 30.6 13 Nordeste 26 Nordeste 0 1000.5 -2.4 24
2019-06-10 15:00:00 29.9 8 Nordeste 24 Nordeste 0 1001.2 -2.2 20
2019-06-10 14:00:00 28.6 9 Este 24 Nordeste 0 1002.1 -1.8 20
2019-06-10 13:00:00 27.5 9 Este 20 Nordeste 0 1002.9 -1.4 22
2019-06-10 12:00:00 26.2 9 Este 16 Este 0 1003.4 -0.8 23
2019-06-10 11:00:00 24.6 6 Nordeste 14 Nordeste 0 1003.9 0.1 29
2019-06-10 10:00:00 22.4 3 Este 9 Norte 0 1004.3 1.1 41
2019-06-10 09:00:00 20.1 2 Oeste 7 Sudoeste 0 1004.2 2 49
2019-06-10 08:00:00 16.9 5 Oeste 11 Sudeste 0 1003.8 1.6 73
2019-06-10 07:00:00 15.6 8 Sudeste 14 Norte 0 1003.2 0.8 77
2019-06-10 06:00:00 15.7 6 Sudoeste 14 Oeste 0 1002.2 -0.4 74
2019-06-10 05:00:00 15.5 5 Sudoeste 9 Oeste 0 1002.2 -0.7 75
2019-06-10 04:00:00 15.7 3 Sudoeste 9 Sudoeste 0 1002.4 -1 72
2019-06-10 03:00:00 16.3 5 Oeste 13 Oeste 0 1002.6 -1 72
2019-06-10 02:00:00 16.9 5 Oeste 10 Oeste 0 1002.9 -0.7 70
2019-06-10 01:00:00 18.1 5 Oeste 6 Oeste 0 1003.4 0.8 65
2019-06-10 00:00:00 18.9 3 Norte 6 Oeste 0 1003.6 1.7 61
2019-06-09 23:00:00 20.9 5 Oeste 9 Nordeste 0 1003.6 2.8 53
2019-06-09 22:00:00 22.5 6 Noroeste 19 Noroeste 0 1002.6 2 47
2019-06-09 21:00:00 24.1 13 Norte 23 Norte 0 1001.9 0.7 50
2019-06-09 20:00:00 28.4 12 Norte 20 Norte 0 1000.8 -1 34
2019-06-09 19:00:00 31.5 6 Sudeste 20 Sudeste 0 1000.6 -2.4 22
2019-06-09 18:00:00 30.1 14 Sudeste 22 Sudeste 0 1001.2 -2.3 23
2019-06-09 17:00:00 30.2 6 Nordeste 18 Nordeste 0 1001.8 -2.7 23
2019-06-09 16:00:00 28.6 8 Nordeste 19 Nordeste 0 1003 -2.2 25
2019-06-09 15:00:00 28.5 5 Sur 13 Sur 0 1003.5 -2.6 24
2019-06-09 14:00:00 26.1 3 Nordeste 13 Sudeste 0 1004.5 -1.6 30
2019-06-09 13:00:00 24.4 3 Nordeste 10 Sudeste 0 1005.2 -1.2 31
2019-06-09 12:00:00 22.7 4 Sudoeste 13 Sudoeste 0 1006.1 -0.6 27
2019-06-09 11:00:00 20.7 5 Sudeste 17 Sudoeste 0 1006.1 -0.6 47
2019-06-09 10:00:00 18.6 8 Sudoeste 15 Sudoeste 0 1006.4 -0.3 50
2019-06-09 09:00:00 17.1 6 Oeste 14 Sur 0 1006.7 -0.2 70
2019-06-09 08:00:00 16 5 Norte 15 Sudoeste 0 1006.7 -0.7 76
2019-06-09 07:00:00 15.4 6 Oeste 17 Oeste 0 1006.7 -1 78
2019-06-09 06:00:00 15.3 8 Oeste 14 Oeste 0 1006.9 -1.8 80
2019-06-09 05:00:00 15.3 9 Oeste 15 Oeste 0 1007.4 -1.9 84
2019-06-09 04:00:00 15.3 5 Oeste 12 Oeste 0 1007.7 -2 84
2019-06-09 03:00:00 15.6 8 Oeste 15 Oeste 0 1008.7 -1.1 83
2019-06-09 02:00:00 16.2 5 Oeste 10 Oeste 0 1009.3 -0.8 81
2019-06-09 01:00:00 16.6 7 Oeste 9 Oeste 0 1009.7 0.1 78
2019-06-09 00:00:00 17.2 3 Norte 9 Noroeste 0 1009.8 -0.2 74
2019-06-08 23:00:00 17.9 5 Norte 16 Norte 0 1010.1 0.1 70
2019-06-08 22:00:00 18.6 9 Norte 17 Nordeste 0 1009.6 -0.3 67
2019-06-08 21:00:00 20.1 10 Norte 20 Norte 0 1010 -0.1 59
2019-06-08 20:00:00 21.1 13 Norte 26 Nordeste 0 1010 -0.5 55
2019-06-08 19:00:00 21.5 17 Norte 25 Norte 0 1009.9 -1.1 52
2019-06-08 18:00:00 22.2 13 Nordeste 26 Nordeste 0 1010.1 -1.5 51
2019-06-08 17:00:00 22.7 13 Nordeste 30 Este 0 1010.5 -1.6 50
2019-06-08 16:00:00 22.7 14 Este 34 Este 0 1011 -1.5 49
2019-06-08 15:00:00 22.6 14 Nordeste 30 Nordeste 0 1011.6 -0.9 51
2019-06-08 14:00:00 22.1 14 Nordeste 27 Nordeste 0 1012.1 0 54
2019-06-08 13:00:00 21.6 13 Nordeste 30 Este 0 1012.5 0.7 55
2019-06-08 12:00:00 21.3 14 Nordeste 32 Nordeste 0 1012.5 1 58
2019-06-08 11:00:00 21.3 19 Nordeste 35 Nordeste 0 1012.1 1.1 59
2019-06-08 10:00:00 20.7 19 Norte 32 Nordeste 0 1011.8 1.4 68
2019-06-08 09:00:00 20.9 10 Norte 16 Norte 0 1011.5 1.8 69
2019-06-08 08:00:00 19.3 3 Norte 5 Norte 0 1011 1.6 74
2019-06-08 07:00:00 18.4 3 Noroeste 9 Oeste 0 1010.4 1 67
2019-06-08 06:00:00 18.1 7 Sudoeste 13 Oeste 0 1009.7 0.4 62
2019-06-08 05:00:00 18 8 Oeste 12 Oeste 0 1009.4 0.5 67
2019-06-08 04:00:00 18.5 6 Oeste 9 Oeste 0 1009.4 0.9 74
2019-06-08 03:00:00 18.7 2 Sur 13 Norte 0 1009.3 1.3 81
2019-06-08 02:00:00 19.2 5 Norte 10 Oeste 0 1008.9 2.2 66
2019-06-08 01:00:00 20.5 6 Noroeste 19 Noroeste 0 1008.5 2.8 59
2019-06-08 00:00:00 21.7 5 Este 17 Sudeste 0 1008 3.2 55
2019-06-07 23:00:00 22.3 5 Oeste 9 Este 0 1006.7 2.8 31
2019-06-07 22:00:00 25.1 6 Nordeste 10 Nordeste 0 1005.7 2.5 26
2019-06-07 21:00:00 28.9 7 Noroeste 25 Norte 0 1004.8 1.7 14
2019-06-07 20:00:00 30.3 17 Noroeste 30 Noroeste 0 1003.9 0.7 14
2019-06-07 19:00:00 32 10 Noroeste 31 Oeste 0 1003.2 -0.1 16
2019-06-07 18:00:00 31.4 15 Norte 38 Noroeste 0 1003.1 -0.2 17
2019-06-07 17:00:00 31.8 12 Noroeste 35 Oeste 0 1003.2 -0.2 16
2019-06-07 16:00:00 31.3 12 Oeste 37 Noroeste 0 1003.3 0 18
2019-06-07 15:00:00 30.3 17 Oeste 40 Noroeste 0 1003.3 0.2 22
2019-06-07 14:00:00 29.5 17 Noroeste 37 Noroeste 0 1003.4 0.5 24
2019-06-07 13:00:00 29 16 Noroeste 49 Oeste 0 1003.3 0.5 26
2019-06-07 12:00:00 26.7 8 Oeste 21 Noroeste 0 1003.1 0.7 31
2019-06-07 11:00:00 25.2 6 Noroeste 20 Noroeste 0 1002.9 0.9 34
2019-06-07 10:00:00 23.8 5 Sudeste 13 Sudeste 0 1002.8 1.3 38
2019-06-07 09:00:00 20.7 3 Norte 6 Norte 0 1002.4 1.7 53
2019-06-07 08:00:00 17.4 2 Sudoeste 12 Noroeste 0 1002 1.6 71
2019-06-07 07:00:00 15.8 8 Oeste 20 Sudoeste 0 1001.5 0.8 81
2019-06-07 06:00:00 16.6 9 Sudoeste 15 Sudoeste 0 1000.7 0.1 79
2019-06-07 05:00:00 16.6 5 Oeste 9 Oeste 0 1000.4 -0.2 88
2019-06-07 04:00:00 17.7 4 Oeste 7 Sudoeste 0 1000.7 -0.2 86
2019-06-07 03:00:00 18.2 4 Oeste 8 Oeste 0 1000.6 -0.4 85
2019-06-07 02:00:00 18.4 3 Oeste 8 Norte 0 1000.6 -0.2 85
2019-06-07 01:00:00 18.6 4 Noroeste 12 Noroeste 0 1000.9 1.2 86
2019-06-07 00:00:00 18.7 7 Oeste 13 Oeste 0 1001 1.7 85
2019-06-06 23:00:00 19.3 9 Oeste 23 Noroeste 0 1000.8 2.2 82
2019-06-06 22:00:00 20.4 6 Noroeste 16 Oeste 0 999.7 1.1 75
2019-06-06 21:00:00 23.2 5 Oeste 30 Norte 0 999.3 -0.1 59
2019-06-06 20:00:00 25.4 21 Norte 36 Noroeste 0 998.6 -1.6 49
2019-06-06 19:00:00 27.6 17 Nordeste 31 Nordeste 0 998.6 -2.2 33
2019-06-06 18:00:00 27.3 19 Nordeste 33 Nordeste 0 999.4 -2.1 37
2019-06-06 17:00:00 27 20 Nordeste 37 Nordeste 0 1000.2 -1.9 42
2019-06-06 16:00:00 27.1 22 Nordeste 38 Nordeste 0 1000.8 -2.1 39
2019-06-06 15:00:00 26.5 16 Nordeste 36 Nordeste 0 1001.5 -1.9 37
2019-06-06 14:00:00 27.2 14 Norte 30 Norte 0 1002.1 -1.7 33
2019-06-06 13:00:00 26 9 Nordeste 21 Este 0 1002.9 -1.2 29
2019-06-06 12:00:00 24.5 5 Nordeste 20 Nordeste 0 1003.4 -0.7 27
2019-06-06 11:00:00 23.2 9 Este 15 Este 0 1003.8 -0.1 32
2019-06-06 10:00:00 21.4 4 Norte 9 Oeste 0 1004.1 0.5 32
2019-06-06 09:00:00 18.1 6 Oeste 14 Oeste 0 1004.1 0.8 36
2019-06-06 08:00:00 14.9 5 Oeste 11 Oeste 0 1003.9 0.9 44
2019-06-06 07:00:00 12.4 8 Sudoeste 12 Oeste 0 1003.6 0.6 51
2019-06-06 06:00:00 12.7 6 Oeste 12 Oeste 0 1003.3 0.2 50
2019-06-06 05:00:00 13.3 7 Oeste 14 Sudoeste 0 1003 0.2 48
2019-06-06 04:00:00 14.6 9 Sudoeste 15 Sudoeste 0 1003 0.5 40
2019-06-06 03:00:00 15.1 3 Oeste 13 Oeste 0 1003.1 1 41
2019-06-06 02:00:00 18.1 12 Sudoeste 20 Sudoeste 0 1002.8 1.3 29
2019-06-06 01:00:00 17.1 5 Oeste 17 Oeste 0 1002.5 1.7 35
2019-06-06 00:00:00 18.6 6 Oeste 12 Oeste 0 1002.1 1.7 31
2019-06-05 23:00:00 21.1 7 Sudoeste 10 Sudoeste 0 1001.5 1.8 27
2019-06-05 22:00:00 22.9 6 Sudoeste 22 Oeste 0 1000.8 1.7 20
2019-06-05 21:00:00 25.1 13 Oeste 28 Oeste 0 1000.4 1.5 15
2019-06-05 20:00:00 26.4 14 Oeste 32 Oeste 0 999.7 0.8 14
2019-06-05 19:00:00 28.2 15 Oeste 40 Oeste 0 999.1 0.1 14
2019-06-05 18:00:00 28.6 20 Oeste 48 Oeste 0 998.9 -0.5 14
2019-06-05 17:00:00 29.6 18 Oeste 49 Noroeste 0 998.9 0 14
2019-06-05 16:00:00 28.5 23 Oeste 56 Oeste 0 999 0.4 17
2019-06-05 15:00:00 27.3 24 Oeste 64 Oeste 0 999.4 1.1 18
2019-06-05 14:00:00 26.4 32 Oeste 66 Oeste 0 998.9 1.3 17
2019-06-05 13:00:00 26.4 28 Oeste 59 Oeste 0 998.6 1.2 17
2019-06-05 12:00:00 25.7 30 Oeste 58 Oeste 0 998.3 1.3 21
2019-06-05 11:00:00 26.3 22 Oeste 55 Oeste 0 997.6 1.3 27
2019-06-05 10:00:00 25 24 Oeste 47 Oeste 0 997.4 1.3 34
2019-06-05 09:00:00 21.3 8 Oeste 14 Oeste 0 997 1 64
2019-06-05 08:00:00 18.1 5 Oeste 11 Oeste 0 996.3 0.2 84
2019-06-05 07:00:00 16.9 6 Oeste 10 Oeste 0 996.1 -0.2 89
2019-06-05 06:00:00 17.2 0 Calma 6 Oeste 0 996 -1 86
2019-06-05 05:00:00 18.2 3 Oeste 6 Oeste 0 996.1 -1.6 86
2019-06-05 04:00:00 19.3 4 Este 6 Nordeste 0 996.3 -1.6 81
2019-06-05 03:00:00 19.8 4 Nordeste 7 Norte 0 997 -1.4 81
2019-06-05 02:00:00 20.1 3 Nordeste 9 Norte 0 997.7 -0.6 83
2019-06-05 01:00:00 20.1 5 Nordeste 11 Nordeste 0 997.9 0.3 82
2019-06-05 00:00:00 20.1 5 Nordeste 14 Nordeste 0 998.4 1.1 83
2019-06-04 23:00:00 20.1 5 Nordeste 14 Nordeste 0 998.3 1.3 84
2019-06-04 22:00:00 20.4 9 Nordeste 19 Nordeste 0 997.6 1.2 83
2019-06-04 21:00:00 22 10 Nordeste 29 Nordeste 0 997.3 0.9 75
2019-06-04 20:00:00 25 19 Norte 31 Norte 0 997 -0.2 53
2019-06-04 19:00:00 28.4 17 Norte 38 Norte 0 996.4 -1.6 39
2019-06-04 18:00:00 31.6 17 Norte 30 Norte 0 996.4 -2.3 33
2019-06-04 17:00:00 32.1 17 Norte 32 Norte 0 997.2 -2.3 33
2019-06-04 16:00:00 30.7 16 Norte 28 Norte 0 998 -2.7 40
2019-06-04 15:00:00 31.3 18 Norte 28 Norte 0 998.7 -2.8 40
2019-06-04 14:00:00 31 11 Norte 21 Nordeste 0 999.5 -2.5 33
2019-06-04 13:00:00 29.3 5 Nordeste 14 Nordeste 0 1000.7 -1.8 30
2019-06-04 12:00:00 27 6 Este 13 Nordeste 0 1001.5 -1 38
2019-06-04 11:00:00 24.8 3 Este 9 Este 0 1002 -0.4 47
2019-06-04 10:00:00 22.2 2 Sudeste 9 Oeste 0 1002.5 0.3 63
2019-06-04 09:00:00 19.1 3 Sudoeste 8 Oeste 0 1002.5 0.4 76
2019-06-04 08:00:00 16.3 5 Sudoeste 11 Oeste 0 1002.4 -0.1 82
2019-06-04 07:00:00 15.7 6 Sudoeste 10 Sudoeste 0 1002.2 -0.8 85
2019-06-04 06:00:00 15.2 7 Oeste 10 Oeste 0 1002.1 -1.5 89
2019-06-04 05:00:00 16 5 Sudoeste 10 Oeste 0 1002.5 -2 89
2019-06-04 04:00:00 16.5 6 Oeste 10 Oeste 0 1003 -2.2 88
2019-06-04 03:00:00 17 3 Oeste 6 Oeste 0 1003.6 -2 88
2019-06-04 02:00:00 17.6 3 Oeste 6 Oeste 0 1004.5 -1 85
2019-06-04 01:00:00 18.6 0 Calma 4 Sudeste 0 1005.2 0.4 83
2019-06-04 00:00:00 19.5 2 Este 7 Nordeste 0 1005.6 1.2 83
2019-06-03 23:00:00 19.6 5 Nordeste 13 Norte 0 1005.5 1.6 81
2019-06-03 22:00:00 20.5 5 Nordeste 18 Nordeste 0 1004.8 1.5 76
2019-06-03 21:00:00 22.7 10 Nordeste 27 Nordeste 0 1004.4 1.2 62
2019-06-03 20:00:00 24.9 16 Norte 29 Norte 0 1003.9 0.9 48
2019-06-03 19:00:00 28 12 Norte 32 Norte 0 1003.3 -0.3 38
2019-06-03 18:00:00 31 15 Norte 30 Norte 0 1003.2 -1.1 30
2019-06-03 17:00:00 32.2 16 Norte 26 Norte 0 1003 -2 25
2019-06-03 16:00:00 32.9 16 Norte 26 Norte 0 1003.6 -2.4 24
2019-06-03 15:00:00 32.6 18 Norte 26 Norte 0 1004.3 -2.3 26
2019-06-03 14:00:00 31.6 8 Nordeste 16 Norte 0 1005 -2.1 23
2019-06-03 13:00:00 29.8 7 Nordeste 15 Este 0 1006 -1.5 25
2019-06-03 12:00:00 27.3 6 Nordeste 13 Nordeste 0 1006.6 -1.1 27
2019-06-03 11:00:00 24.5 6 Nordeste 12 Nordeste 0 1007.1 -0.6 33
2019-06-03 10:00:00 21.7 4 Oeste 13 Oeste 0 1007.5 -0.1 37
2019-06-03 09:00:00 19 7 Oeste 12 Oeste 0 1007.7 0.7 47
2019-06-03 08:00:00 16.2 5 Oeste 9 Oeste 0 1007.7 0.5 59
2019-06-03 07:00:00 14.1 3 Oeste 13 Oeste 0 1007.6 0.3 70
2019-06-03 06:00:00 14.4 5 Oeste 11 Oeste 0 1007 -0.8 71
2019-06-03 05:00:00 14.9 7 Sudoeste 12 Sudoeste 0 1007.2 -0.8 68
2019-06-03 04:00:00 15.6 8 Oeste 10 Oeste 0 1007.3 -1 69
2019-06-03 03:00:00 16.2 4 Oeste 8 Oeste 0 1007.8 -0.6 69
2019-06-03 02:00:00 17.1 6 Oeste 12 Oeste 0 1008 -0.2 72
2019-06-03 01:00:00 18.8 4 Oeste 10 Este 0 1008.3 1.1 65
2019-06-03 00:00:00 19.5 8 Este 12 Este 0 1008.4 1.9 63
2019-06-02 23:00:00 20.5 7 Nordeste 16 Norte 0 1008.2 2.5 57
2019-06-02 22:00:00 22.3 8 Norte 20 Nordeste 0 1007.2 1.7 47
2019-06-02 21:00:00 26.5 4 Norte 26 Norte 0 1006.5 0.9 33
2019-06-02 20:00:00 28.6 15 Norte 30 Norte 0 1005.7 -0.1 27
2019-06-02 19:00:00 31.3 19 Norte 30 Norte 0 1005.5 -0.9 18
2019-06-02 18:00:00 32.5 11 Nordeste 23 Norte 0 1005.6 -1.2 19
2019-06-02 17:00:00 32.3 12 Nordeste 24 Nordeste 0 1005.8 -1.8 20
2019-06-02 16:00:00 32.2 12 Nordeste 27 Nordeste 0 1006.4 -1.9 19
2019-06-02 15:00:00 32.3 10 Nordeste 27 Norte 0 1006.8 -1.9 16
2019-06-02 14:00:00 31 7 Este 18 Este 0 1007.6 -1.5 12
2019-06-02 13:00:00 29.4 4 Norte 17 Sudeste 0 1008.3 -1.1 19
2019-06-02 12:00:00 28.2 6 Este 15 Sudeste 0 1008.7 -0.8 21
2019-06-02 11:00:00 25.6 6 Este 16 Sudeste 0 1009.1 -0.5 23
2019-06-02 10:00:00 22.4 5 Sudeste 12 Sudeste 0 1009.4 -0.2 30
2019-06-02 09:00:00 18.8 3 Sur 12 Sudoeste 0 1009.5 -0.1 38
2019-06-02 08:00:00 15.4 5 Sudoeste 12 Oeste 0 1009.6 -0.1 50
2019-06-02 07:00:00 12.7 6 Sudoeste 11 Oeste 0 1009.6 -0.4 61
2019-06-02 06:00:00 12.7 8 Oeste 13 Sudoeste 0 1009.6 -0.8 64
2019-06-02 05:00:00 13.9 8 Sudoeste 13 Oeste 0 1009.7 -1 59
2019-06-02 04:00:00 14.1 6 Oeste 9 Oeste 0 1010 -0.6 62
2019-06-02 03:00:00 15.2 8 Oeste 11 Oeste 0 1010.4 -0.2 63
2019-06-02 02:00:00 16.9 7 Oeste 9 Oeste 0 1010.7 0.5 63
2019-06-02 01:00:00 17.9 6 Oeste 9 Oeste 0 1010.6 1.5 59
2019-06-02 00:00:00 19.1 2 Oeste 8 Sudeste 0 1010.6 2 51
2019-06-01 23:00:00 20.4 6 Oeste 15 Oeste 0 1010.2 2 44
2019-06-01 22:00:00 22.3 6 Sudoeste 18 Noroeste 0 1009.1 1 38
2019-06-01 21:00:00 26.5 9 Norte 20 Nordeste 0 1008.6 0.1 25
2019-06-01 20:00:00 28.6 11 Nordeste 21 Nordeste 0 1008.2 -0.5 20
2019-06-01 19:00:00 29.6 13 Este 27 Nordeste 0 1008.1 -1.1 20
2019-06-01 18:00:00 30.3 14 Este 28 Nordeste 0 1008.5 -1.3 23
2019-06-01 17:00:00 30.4 14 Nordeste 23 Nordeste 0 1008.7 -1.7 23
2019-06-01 16:00:00 30.4 10 Nordeste 28 Nordeste 0 1009.2 -2 26
2019-06-01 15:00:00 30.1 7 Norte 20 Nordeste 0 1009.8 -1.7 25
2019-06-01 14:00:00 29.3 6 Norte 18 Este 0 1010.4 -1.4 18
2019-06-01 13:00:00 27.5 9 Nordeste 21 Nordeste 0 1011.2 -0.9 23
2019-06-01 12:00:00 26.1 5 Oeste 15 Sudeste 0 1011.5 -0.7 29
2019-06-01 11:00:00 24.4 5 Este 12 Este 0 1011.8 -0.4 36
2019-06-01 10:00:00 22.1 4 Sudeste 17 Oeste 0 1012.1 0 45
2019-06-01 09:00:00 18.4 8 Sudoeste 18 Sudoeste 0 1012.2 0.3 54
2019-06-01 08:00:00 15 8 Oeste 15 Oeste 0 1012.2 0.2 68
2019-06-01 07:00:00 12.8 9 Oeste 13 Oeste 0 1012.1 -0.2 78
2019-06-01 06:00:00 13.2 8 Oeste 12 Oeste 0 1011.9 -0.5 78
2019-06-01 05:00:00 14.2 8 Oeste 15 Oeste 0 1012 -0.8 73
2019-06-01 04:00:00 14.9 9 Sudoeste 15 Sudoeste 0 1012.3 -0.6 76
2019-06-01 03:00:00 16.3 8 Oeste 12 Sudoeste 0 1012.4 -0.5 71
2019-06-01 02:00:00 16.7 7 Oeste 13 Oeste 0 1012.8 0.3 76
2019-06-01 01:00:00 17.3 6 Oeste 12 Sudoeste 0 1012.9 1.3 71
2019-06-01 00:00:00 18.8 7 Sudoeste 21 Norte 0 1012.9 2 63
2019-05-31 23:00:00 20.3 5 Sudeste 12 Sudoeste 0 1012.5 1.8 49
2019-05-31 22:00:00 21.7 6 Norte 15 Nordeste 0 1011.6 1.1 40
2019-05-31 21:00:00 25.1 9 Nordeste 21 Sudeste 0 1010.9 0.2 31
2019-05-31 20:00:00 27.5 15 Este 25 Este 0 1010.7 -0.2 24
2019-05-31 19:00:00 28.4 15 Nordeste 24 Nordeste 0 1010.5 -0.9 27
2019-05-31 18:00:00 28.9 14 Nordeste 29 Nordeste 0 1010.7 -1 26
2019-05-31 17:00:00 29.4 17 Nordeste 27 Nordeste 0 1010.9 -1.4 26
2019-05-31 16:00:00 29.3 13 Nordeste 27 Nordeste 0 1011.4 -1.7 27
2019-05-31 15:00:00 29.2 9 Este 22 Norte 0 1011.7 -1.8 27
2019-05-31 14:00:00 28.4 7 Este 25 Norte 0 1012.3 -1.5 27
2019-05-31 13:00:00 27.2 8 Nordeste 18 Norte 0 1013.1 -0.8 29
2019-05-31 12:00:00 26 6 Nordeste 15 Nordeste 0 1013.5 -0.5 30
2019-05-31 11:00:00 24 4 Este 12 Nordeste 0 1013.8 -0.3 32
2019-05-31 10:00:00 21.4 3 Sudoeste 14 Oeste 0 1013.9 0.1 42
2019-05-31 09:00:00 18.1 7 Sudoeste 15 Oeste 0 1014 0.5 52
2019-05-31 08:00:00 15.5 6 Sudoeste 16 Sudoeste 0 1014.1 0.7 62
2019-05-31 07:00:00 13.6 11 Oeste 18 Oeste 0 1013.8 0.3 70
2019-05-31 06:00:00 13.9 9 Sudoeste 15 Oeste 0 1013.5 -0.5 70
2019-05-31 05:00:00 14.3 9 Oeste 17 Oeste 0 1013.4 -0.9 69
2019-05-31 04:00:00 14.9 7 Oeste 13 Sudoeste 0 1013.5 -0.7 66
2019-05-31 03:00:00 16.4 9 Sudoeste 17 Sudoeste 0 1014 -0.2 58
2019-05-31 02:00:00 16.7 6 Oeste 14 Oeste 0 1014.3 0.6 58
2019-05-31 01:00:00 17.8 10 Oeste 15 Oeste 0 1014.2 1.5 54
2019-05-31 00:00:00 18.6 5 Oeste 10 Oeste 0 1014.2 2.3 52
2019-05-30 23:00:00 20.3 5 Sudoeste 8 Oeste 0 1013.7 2.4 45
2019-05-30 22:00:00 21.8 2 Sudoeste 17 Norte 0 1012.7 1.3 39
2019-05-30 21:00:00 25.5 8 Norte 21 Nordeste 0 1011.9 0.3 28
2019-05-30 20:00:00 26.8 12 Nordeste 23 Nordeste 0 1011.3 -0.7 28
2019-05-30 19:00:00 27.6 15 Nordeste 27 Nordeste 0 1011.4 -0.9 27
2019-05-30 18:00:00 28.3 17 Nordeste 30 Nordeste 0 1011.6 -1.1 28
2019-05-30 17:00:00 28.9 9 Nordeste 26 Nordeste 0 1012 -1.3 26
2019-05-30 16:00:00 29.3 5 Sudoeste 21 Nordeste 0 1012.3 -1.5 20
2019-05-30 15:00:00 28.5 7 Norte 21 Este 0 1012.7 -1.6 21
2019-05-30 14:00:00 27.3 7 Noroeste 20 Noroeste 0 1013.3 -1.3 21
2019-05-30 13:00:00 25.7 5 Oeste 17 Noroeste 0 1013.8 -1 26
2019-05-30 12:00:00 24.4 7 Norte 12 Norte 0 1014.3 -0.3 26
2019-05-30 11:00:00 22.8 4 Este 10 Este 0 1014.6 0.2 33
2019-05-30 10:00:00 20 4 Sudoeste 14 Oeste 0 1014.8 0.8 40
2019-05-30 09:00:00 16.8 8 Sudoeste 13 Oeste 0 1014.6 1.1 50
2019-05-30 08:00:00 13.7 7 Oeste 12 Oeste 0 1014.4 0.9 65
2019-05-30 07:00:00 11.2 9 Oeste 14 Oeste 0 1014 0.6 72
2019-05-30 06:00:00 11.4 8 Oeste 14 Oeste 0 1013.5 0.1 71
2019-05-30 05:00:00 11.9 6 Oeste 12 Sudoeste 0 1013.5 -0.1 70
2019-05-30 04:00:00 12.7 9 Oeste 13 Oeste 0 1013.4 0.1 65
2019-05-30 03:00:00 13.3 9 Oeste 13 Oeste 0 1013.4 0.5 62
2019-05-30 02:00:00 13.6 7 Oeste 10 Oeste 0 1013.6 1.3 65
2019-05-30 01:00:00 15.7 6 Oeste 13 Oeste 0 1013.3 2.2 52
2019-05-30 00:00:00 16.6 8 Oeste 12 Sudoeste 0 1012.9 2.7 46
2019-05-29 23:00:00 17.8 5 Oeste 8 Norte 0 1012.3 2.7 45
2019-05-29 22:00:00 19.6 6 Nordeste 10 Nordeste 0 1011.1 1.9 34
2019-05-29 21:00:00 23.2 8 Este 22 Este 0 1010.2 1.1 25
2019-05-29 20:00:00 24.4 13 Este 23 Este 0 1009.6 0.5 23
2019-05-29 19:00:00 24.9 13 Este 39 Nordeste 0 1009.2 -0.2 22
2019-05-29 18:00:00 25.7 16 Este 31 Este 0 1009.1 -0.8 22
2019-05-29 17:00:00 26.5 15 Sudeste 31 Sudeste 0 1009.1 -1.2 22
2019-05-29 16:00:00 25.6 10 Nordeste 22 Nordeste 0 1009.4 -1.1 23
2019-05-29 15:00:00 24.8 11 Nordeste 33 Nordeste 0 1009.9 -1 24
2019-05-29 14:00:00 23.7 10 Nordeste 27 Este 0 1010.3 -0.5 24
2019-05-29 13:00:00 22.9 8 Nordeste 23 Norte 0 1010.5 -0.3 26
2019-05-29 12:00:00 21.9 9 Nordeste 18 Nordeste 0 1010.9 0.4 27
2019-05-29 11:00:00 20.9 5 Nordeste 19 Norte 0 1010.8 0.6 30
2019-05-29 10:00:00 19.3 9 Nordeste 21 Norte 0 1010.8 1.4 36
2019-05-29 09:00:00 17.7 3 Sudeste 10 Oeste 0 1010.5 1.6 56
2019-05-29 08:00:00 14.6 4 Sudoeste 14 Sudoeste 0 1010.2 1.9 75
2019-05-29 07:00:00 12.5 6 Oeste 22 Sudoeste 0 1009.4 1.5 83
2019-05-29 06:00:00 13.1 8 Sudoeste 13 Sudoeste 0 1008.9 1.1 81
2019-05-29 05:00:00 13.8 8 Sudoeste 14 Sudoeste 0 1008.3 0.5 79
2019-05-29 04:00:00 13.9 6 Oeste 12 Sudoeste 0 1007.9 0.2 80
2019-05-29 03:00:00 14.4 6 Oeste 11 Oeste 0 1007.8 0.5 80
2019-05-29 02:00:00 15.3 7 Oeste 11 Oeste 0 1007.8 1.1 76
2019-05-29 01:00:00 16.4 6 Sudoeste 9 Oeste 0 1007.7 2.1 69
2019-05-29 00:00:00 17 6 Oeste 12 Oeste 0 1007.3 2.6 65
2019-05-28 23:00:00 18 9 Oeste 12 Oeste 0 1006.7 3.2 61
2019-05-28 22:00:00 19.6 3 Sudoeste 14 Norte 0 1005.6 3.1 52
2019-05-28 21:00:00 22.8 7 Noroeste 19 Nordeste 0 1004.7 3.1 42
2019-05-28 20:00:00 23.7 12 Nordeste 24 Norte 0 1003.5 2.3 41
2019-05-28 19:00:00 26 15 Norte 25 Nordeste 0 1002.5 1.1 35
2019-05-28 18:00:00 27.1 17 Nordeste 27 Nordeste 0 1001.6 -0.3 31
2019-05-28 17:00:00 28.2 12 Norte 28 Este 0 1001.2 -1.4 30
2019-05-28 16:00:00 27.8 14 Nordeste 30 Nordeste 0 1001.4 -1.7 30
2019-05-28 15:00:00 27.3 12 Nordeste 26 Este 0 1001.9 -1.4 32
2019-05-28 14:00:00 26.3 12 Este 27 Nordeste 0 1002.6 -0.7 32
2019-05-28 13:00:00 25.2 12 Nordeste 26 Nordeste 0 1003.1 -0.5 36
2019-05-28 12:00:00 24.4 7 Nordeste 16 Este 0 1003.3 -0.1 44
2019-05-28 11:00:00 23.2 6 Este 13 Este 0 1003.3 0.6 48
2019-05-28 10:00:00 21.6 2 Nordeste 9 Sudoeste 0 1003.6 1.2 48
2019-05-28 09:00:00 18.5 4 Sudoeste 11 Sudoeste 0 1003.4 1.4 67
2019-05-28 08:00:00 16.1 6 Oeste 15 Oeste 0 1002.7 0.7 79
2019-05-28 07:00:00 14.6 6 Sudoeste 11 Oeste 0 1002.4 0.3 86
2019-05-28 06:00:00 14.9 7 Oeste 11 Oeste 0 1002 0 87
2019-05-28 05:00:00 15.5 6 Oeste 11 Oeste 0 1002 -0.2 89
2019-05-28 04:00:00 16.2 8 Oeste 11 Oeste 0 1002.1 -0.5 90
2019-05-28 03:00:00 17.1 6 Oeste 9 Oeste 0 1002 -0.3 88
2019-05-28 02:00:00 18.2 4 Oeste 5 Oeste 0 1002.2 0.7 89
2019-05-28 01:00:00 18.5 0 Calma 5 Norte 0 1002.6 1.6 90
2019-05-28 00:00:00 18.8 3 Norte 12 Nordeste 0 1002.3 2 87
2019-05-27 23:00:00 19.5 6 Nordeste 10 Este 0 1001.5 2.2 80
2019-05-27 22:00:00 21.3 4 Este 20 Norte 0 1001 2.7 60
2019-05-27 21:00:00 22.8 15 Norte 31 Noroeste 0 1000.3 2.1 52
2019-05-27 20:00:00 26.6 19 Norte 28 Norte 0 999.3 0.7 30
2019-05-27 19:00:00 29.4 17 Nordeste 43 Norte 0 998.3 -0.9 32
2019-05-27 18:00:00 30.5 19 Norte 30 Norte 0 998.2 -1.9 31
2019-05-27 17:00:00 31.3 11 Sudeste 24 Sudeste 0 998.6 -2.3 24
2019-05-27 16:00:00 30 6 Norte 19 Este 0 999.2 -2.2 24
2019-05-27 15:00:00 29.8 9 Este 21 Sudeste 0 1000.1 -1.7 25
2019-05-27 14:00:00 28.7 5 Sur 21 Oeste 0 1000.9 -1.6 26
2019-05-27 13:00:00 27.7 5 Nordeste 14 Oeste 0 1001.4 -1.4 28
2019-05-27 12:00:00 26 5 Sudeste 15 Nordeste 0 1001.8 -0.9 32
2019-05-27 11:00:00 24.2 3 Noroeste 12 Sudeste 0 1002.5 -0.5 39
2019-05-27 10:00:00 21.4 3 Oeste 11 Oeste 0 1002.8 -0.3 51
2019-05-27 09:00:00 18.6 5 Sudoeste 10 Sudoeste 0 1002.7 -0.2 63
2019-05-27 08:00:00 15.2 3 Oeste 10 Sudoeste 0 1003 -0.3 80
2019-05-27 07:00:00 13 5 Sudoeste 11 Sudoeste 0 1003.1 -0.7 86
2019-05-27 06:00:00 13.2 3 Oeste 12 Sudoeste 0 1002.9 -1.2 84
2019-05-27 05:00:00 13.9 6 Oeste 11 Oeste 0 1003.3 -1.3 81
2019-05-27 04:00:00 14.1 6 Oeste 11 Oeste 0 1003.8 -1.1 81
2019-05-27 03:00:00 14.7 7 Sudoeste 13 Oeste 0 1004.1 -1 80
2019-05-27 02:00:00 15.6 8 Sudoeste 11 Oeste 0 1004.6 -0.4 78
2019-05-27 01:00:00 17 4 Oeste 7 Sur 0 1004.9 0.6 73
2019-05-27 00:00:00 17.9 5 Oeste 8 Oeste 0 1005.1 1.2 70
2019-05-26 23:00:00 19.6 3 Sur 10 Nordeste 0 1005 1.5 59
2019-05-26 22:00:00 20.4 6 Norte 14 Este 0 1004.3 0.8 55
2019-05-26 21:00:00 23.9 9 Nordeste 22 Nordeste 0 1003.9 0.1 35
2019-05-26 20:00:00 25 14 Nordeste 22 Norte 0 1003.5 -0.3 32
2019-05-26 19:00:00 26.6 7 Norte 24 Nordeste 0 1003.5 -0.4 29
2019-05-26 18:00:00 25.8 12 Nordeste 29 Nordeste 0 1003.8 -0.1 36
2019-05-26 17:00:00 26.1 16 Nordeste 31 Este 0 1003.8 -0.5 39
2019-05-26 16:00:00 26.6 17 Norte 31 Norte 0 1003.9 -1.1 36
2019-05-26 15:00:00 26.2 14 Este 27 Nordeste 0 1003.9 -1.8 37
2019-05-26 14:00:00 26.5 9 Este 23 Nordeste 0 1004.3 -1.8 32
2019-05-26 13:00:00 26.1 7 Norte 16 Norte 0 1005 -1.5 33
2019-05-26 12:00:00 24.1 7 Nordeste 16 Este 0 1005.7 -1.1 36
2019-05-26 11:00:00 22.6 3 Sudoeste 13 Oeste 0 1006.1 -0.8 41
2019-05-26 10:00:00 20.9 5 Sudeste 10 Sudeste 0 1006.5 0 48
2019-05-26 09:00:00 18.3 0 Calma 8 Sudoeste 0 1006.8 0.6 60
2019-05-26 08:00:00 15 0 Calma 9 Oeste 0 1006.9 0.4 78
2019-05-26 07:00:00 13.1 4 Oeste 13 Sudoeste 0 1006.5 -0.2 84
2019-05-26 06:00:00 13.2 5 Oeste 8 Oeste 0 1006.2 -0.8 83
2019-05-26 05:00:00 14.1 4 Sudoeste 12 Oeste 0 1006.5 -0.9 76
2019-05-26 04:00:00 14.5 6 Sudoeste 16 Oeste 0 1006.7 -1.1 75
2019-05-26 03:00:00 14.5 8 Oeste 18 Sudoeste 0 1007 -0.6 79
2019-05-26 02:00:00 15.4 9 Sudoeste 16 Sudoeste 0 1007.4 -0.1 71
2019-05-26 01:00:00 15.1 8 Oeste 15 Oeste 0 1007.8 1.2 77
2019-05-26 00:00:00 16.6 6 Oeste 10 Oeste 0 1007.6 1.2 67
2019-05-25 23:00:00 17.7 3 Noroeste 14 Sur 0 1007.5 1.6 61
2019-05-25 22:00:00 19.6 7 Sudeste 19 Sudeste 0 1006.6 1 48
2019-05-25 21:00:00 21.4 8 Sudeste 16 Este 0 1006.4 0.5 45
2019-05-25 20:00:00 23 7 Este 19 Este 0 1005.9 -0.1 38
2019-05-25 19:00:00 23.8 12 Este 23 Este 0 1005.6 -0.9 37
2019-05-25 18:00:00 23.2 10 Este 21 Este 0 1005.9 -1 39
2019-05-25 17:00:00 23 7 Este 23 Este 0 1006 -1.1 40
2019-05-25 16:00:00 22.5 8 Este 21 Este 0 1006.5 -0.9 42
2019-05-25 15:00:00 20.4 4 Nordeste 14 Sudeste 0 1006.9 -0.4 50
2019-05-25 14:00:00 19.2 6 Este 16 Sudeste 0 1007.1 0.2 63
2019-05-25 13:00:00 17.5 8 Este 19 Este 0.2 1007.4 1.1 72
2019-05-25 12:00:00 17.6 9 Nordeste 18 Nordeste 0 1007.3 1.6 73
2019-05-25 11:00:00 17.1 7 Norte 15 Nordeste 0 1006.9 1.7 75
2019-05-25 10:00:00 16.8 7 Nordeste 14 Nordeste 0 1006.3 1.8 80
2019-05-25 09:00:00 16.1 0 Calma 4 Nordeste 0 1005.7 1.4 87
2019-05-25 08:00:00 15.5 5 Nordeste 9 Oeste 0 1005.2 0.8 91
2019-05-25 07:00:00 15.1 5 Sudoeste 8 Oeste 0 1004.5 0 89
2019-05-25 06:00:00 15.1 5 Sudoeste 9 Oeste 0 1004.3 -0.2 90
2019-05-25 05:00:00 15.2 4 Oeste 9 Oeste 0 1004.4 -0.8 90
2019-05-25 04:00:00 15.2 4 Sudoeste 12 Oeste 0 1004.5 -0.9 88
2019-05-25 03:00:00 15.6 8 Sudoeste 13 Sudoeste 0 1004.5 -0.7 84
2019-05-25 02:00:00 15.2 6 Oeste 10 Oeste 0 1005.2 0 89
2019-05-25 01:00:00 15.4 5 Oeste 15 Sudoeste 0 1005.4 0.5 89
2019-05-25 00:00:00 15.5 8 Sudoeste 13 Sudoeste 0 1005.2 0.4 87
2019-05-24 23:00:00 15.8 5 Sudoeste 8 Sudoeste 0 1005.2 0.6 87
2019-05-24 22:00:00 16 5 Oeste 12 Sudoeste 0 1004.9 0.5 88
2019-05-24 21:00:00 16.7 6 Sudoeste 10 Sudoeste 0 1004.8 0.3 85
2019-05-24 20:00:00 17.1 0 Calma 11 Sudeste 0 1004.6 0.1 80
2019-05-24 19:00:00 16.9 8 Sudeste 16 Este 0 1004.4 0.1 83
2019-05-24 18:00:00 16.4 10 Norte 20 Nordeste 0 1004.5 0.1 89
2019-05-24 17:00:00 15.9 14 Nordeste 30 Norte 2.6 1004.5 0.4 93
2019-05-24 16:00:00 17.1 21 Norte 41 Norte 0 1004.3 0.4 86
2019-05-24 15:00:00 17.6 20 Norte 36 Norte 0.4 1004.4 -0.4 93
2019-05-24 14:00:00 18.2 9 Noroeste 21 Oeste 0.2 1004.1 -0.1 90
2019-05-24 13:00:00 18 5 Norte 24 Norte 0 1003.9 -0.1 88
2019-05-24 12:00:00 17.8 14 Norte 29 Noroeste 0 1004.8 1.2 87
2019-05-24 11:00:00 18.1 11 Norte 19 Norte 0 1004.2 1 84
2019-05-24 10:00:00 18.6 8 Norte 19 Norte 0 1004 0.9 80
2019-05-24 09:00:00 18.5 6 Norte 12 Noroeste 0 1003.6 0.4 82
2019-05-24 08:00:00 18.1 5 Oeste 12 Oeste 0 1003.2 0.5 88
2019-05-24 07:00:00 18 3 Noroeste 14 Noroeste 0 1003.1 0.5 89
2019-05-24 06:00:00 17.8 7 Noroeste 18 Noroeste 0 1003.2 0.1 91
2019-05-24 05:00:00 17.8 5 Norte 13 Norte 0 1002.7 -1 87
2019-05-24 04:00:00 17.1 5 Noroeste 13 Norte 0 1002.6 -1.5 87
2019-05-24 03:00:00 17.8 4 Sur 10 Noroeste 0 1003.1 -1.2 85
2019-05-24 02:00:00 17.3 0 Calma 4 Nordeste 0 1003.7 -0.6 87
2019-05-24 01:00:00 17.6 2 Oeste 7 Sudoeste 0 1004.1 0.3 84
2019-05-24 00:00:00 18.2 4 Oeste 7 Oeste 0 1004.3 0.8 80
2019-05-23 23:00:00 19.4 3 Este 9 Este 0 1004.3 1.3 71
2019-05-23 22:00:00 20.1 8 Este 13 Este 0 1003.8 1 67
2019-05-23 21:00:00 22.2 8 Nordeste 20 Nordeste 0 1003.5 1.1 58
2019-05-23 20:00:00 24.8 10 Nordeste 24 Nordeste 0 1003 0.2 49
2019-05-23 19:00:00 25.4 15 Nordeste 32 Norte 0 1002.8 -0.8 45
2019-05-23 18:00:00 31.2 11 Norte 19 Norte 0 1002.4 -1.6 30
2019-05-23 17:00:00 32.9 5 Nordeste 21 Este 0 1002.8 -2 19
2019-05-23 16:00:00 31.8 5 Noroeste -- -- -- 1003.6 -1.8 21
2019-05-23 15:00:00 32.4 10 Oeste 22 Sudoeste 0 1004 -2.3 20
2019-05-23 14:00:00 30.5 8 Oeste 20 Oeste 0 1004.8 -2 23
2019-05-23 13:00:00 29.6 5 Sudoeste 15 Este 0 1005.4 -1.8 22
2019-05-23 12:00:00 27.2 7 Sudeste 15 Sudoeste 0 1006.3 -0.8 27
2019-05-23 11:00:00 24.2 4 Sur 16 Sudoeste 0 1006.8 -0.3 30
2019-05-23 10:00:00 22.1 6 Sur 22 Sudoeste 0 1007.2 0.3 33
2019-05-23 09:00:00 19 10 Sudoeste 22 Sudoeste 0 1007.1 0.3 41
2019-05-23 08:00:00 15 3 Sur 11 Sudoeste 0 1007.1 0.2 82
2019-05-23 07:00:00 13 5 Oeste 12 Sudoeste 0 1006.9 -0.3 88
2019-05-23 06:00:00 13.6 5 Oeste 12 Oeste 0 1006.8 -0.8 88
2019-05-23 05:00:00 14.2 9 Oeste 13 Oeste 0 1006.9 -0.9 90
2019-05-23 04:00:00 15.4 5 Oeste 14 Sudoeste 0 1007.2 -0.8 91
2019-05-23 03:00:00 15.8 6 Sudoeste 9 Oeste 0 1007.6 -0.3 92
2019-05-23 02:00:00 16.2 2 Oeste 6 Oeste 0 1007.8 0 92
2019-05-23 01:00:00 16.8 4 Oeste 6 Oeste 0 1008 1 89
2019-05-23 00:00:00 17.9 3 Sudeste 4 Sudeste 0 1007.9 1.5 86
2019-05-22 23:00:00 18.1 3 Este 10 Nordeste 0 1007.8 2.2 85
2019-05-22 22:00:00 18.6 6 Nordeste 20 Norte 0 1007 2.2 83
2019-05-22 21:00:00 20.4 11 Norte 21 Norte 0 1006.4 1.6 68
2019-05-22 20:00:00 24 7 Norte 30 Norte 0 1005.6 0.6 55
2019-05-22 19:00:00 26.1 18 Norte 29 Norte 0 1004.8 -1 49
2019-05-22 18:00:00 29.2 8 Sudeste 20 Sur 0 1004.8 -1.5 32
2019-05-22 17:00:00 28.8 9 Sudeste 20 Sudeste 0 1005 -1.8 36
2019-05-22 16:00:00 27 8 Nordeste 23 Nordeste 0 1005.8 -1.5 43
2019-05-22 15:00:00 26.9 9 Nordeste 22 Nordeste 0 1006.3 -1.4 34
2019-05-22 14:00:00 25.7 6 Norte 18 Noroeste 0 1006.8 -1.1 37
2019-05-22 13:00:00 23.8 6 Norte 15 Nordeste 0 1007.3 -1 45
2019-05-22 12:00:00 22.3 5 Nordeste 11 Nordeste 0 1007.7 -0.2 45
2019-05-22 11:00:00 19.7 5 Noroeste 13 Sudoeste 0 1007.9 0.4 61
2019-05-22 10:00:00 17.1 7 Oeste 12 Oeste 0 1008.3 1.2 77
2019-05-22 09:00:00 14.8 6 Sudoeste 10 Sudoeste 0 1007.9 1.1 83
2019-05-22 08:00:00 13.3 4 Oeste 9 Oeste 0 1007.5 1 94
2019-05-22 07:00:00 12.2 5 Oeste 8 Sudoeste 0 1007.1 0.6 95
2019-05-22 06:00:00 12.9 5 Sur 10 Sudoeste 0 1006.8 0.3 94
2019-05-22 05:00:00 13 5 Oeste 11 Oeste 0 1006.5 -0.3 94
2019-05-22 04:00:00 13.6 6 Oeste 10 Oeste 0 1006.5 -0.2 95
2019-05-22 03:00:00 14.2 6 Oeste 11 Oeste 0 1006.5 -0.1 93
2019-05-22 02:00:00 15.1 3 Sudoeste 12 Sur 0 1006.8 0.4 88
2019-05-22 01:00:00 15.3 7 Oeste 15 Oeste 0 1006.7 -0.1 92
2019-05-22 00:00:00 15.3 4 Sudoeste 14 Oeste 0 1006.6 -0.3 91
2019-05-21 23:00:00 15.6 10 Sudoeste 20 Sudoeste 0.2 1006.4 -0.2 88
2019-05-21 22:00:00 15.6 4 Sudoeste 21 Sur 3.4 1006.8 2.5 93
2019-05-21 21:00:00 16.1 11 Sudoeste 43 Oeste 7.8 1006.9 3.8 88
2019-05-21 20:00:00 18.9 11 Oeste 57 Norte 0 1006.6 3.8 68
2019-05-21 19:00:00 20.7 39 Norte 61 Norte 0 1004.3 0.9 66
2019-05-21 18:00:00 27.3 5 Sudeste 22 Sudeste 0 1003.1 -0.9 30
2019-05-21 17:00:00 28 9 Sur 27 Sudeste 0 1002.8 -1.9 27
2019-05-21 16:00:00 27.1 10 Sudeste 25 Sudeste 0 1003.4 -1.7 29
2019-05-21 15:00:00 26.1 6 Sur 17 Sudeste 0 1004 -1.5 34
2019-05-21 14:00:00 23.6 4 Noroeste 12 Sur 0 1004.7 -0.7 46
2019-05-21 13:00:00 21.3 7 Este 13 Sudeste 0 1005.1 -0.4 59
2019-05-21 12:00:00 19.5 2 Norte 8 Norte 0 1005.5 0.6 71
2019-05-21 11:00:00 18.7 2 Este 12 Oeste 0 1005.4 1 76
2019-05-21 10:00:00 17.5 0 Calma 7 Norte 0 1005.5 2.1 83
2019-05-21 09:00:00 16.9 8 Sudeste 12 Este 0.4 1004.9 1.6 89
2019-05-21 08:00:00 16.6 2 Noroeste 9 Oeste 0 1004.4 0.9 86
2019-05-21 07:00:00 16.8 7 Sudeste 11 Sudeste 0 1003.4 -0.1 83
2019-05-21 06:00:00 17.1 0 Calma 7 Oeste 0 1003.3 -0.3 77
2019-05-21 05:00:00 17 4 Oeste 8 Oeste 0 1003.5 -0.4 78
2019-05-21 04:00:00 16.9 3 Noroeste 11 Noroeste 0 1003.5 -0.5 78
2019-05-21 03:00:00 17 8 Oeste 12 Oeste 0 1003.6 0 78
2019-05-21 02:00:00 17 3 Noroeste 14 Noroeste 0 1003.9 0.8 79
2019-05-21 01:00:00 17 5 Norte 14 Nordeste 0 1004 2.4 79
2019-05-21 00:00:00 17.3 9 Norte 21 Norte 0 1003.6 3.2 78
2019-05-20 23:00:00 18 8 Nordeste 28 Norte 0 1003.1 3.1 75
2019-05-20 22:00:00 20.3 16 Norte 25 Nordeste 0 1001.6 1.7 58
2019-05-20 21:00:00 23.8 12 Sudeste 28 Sudeste 0 1000.4 0.7 33
2019-05-20 20:00:00 25.2 14 Sudeste 33 Este 0 1000 0.1 29
2019-05-20 19:00:00 26.4 18 Este 36 Este 0 999.9 -0.6 30
2019-05-20 18:00:00 26.5 23 Este 37 Sudeste 0 999.7 -1.4 29
2019-05-20 17:00:00 28.3 10 Sudeste 25 Sudeste 0 999.9 -1.8 23
2019-05-20 16:00:00 27.4 7 Sudoeste 26 Sudeste 0 1000.5 -1.8 21
2019-05-20 15:00:00 26.4 7 Sur 27 Sudeste 0 1001.1 -1.6 24
2019-05-20 14:00:00 24.9 8 Este 18 Sudeste 0 1001.7 -1.1 27
2019-05-20 13:00:00 23.4 6 Nordeste 15 Oeste 0 1002.3 -0.5 30
2019-05-20 12:00:00 22.5 5 Nordeste 15 Nordeste 0 1002.7 0.2 31
2019-05-20 11:00:00 20.4 4 Este 12 Este 0 1002.8 0.7 36
2019-05-20 10:00:00 18.1 5 Oeste 17 Sudoeste 0 1002.8 1.3 44
2019-05-20 09:00:00 14.6 7 Sudoeste 12 Sudoeste 0 1002.5 1.1 54
2019-05-20 08:00:00 12.3 8 Sudoeste 14 Sudoeste 0 1002.1 0.6 63
2019-05-20 07:00:00 11.1 11 Sudoeste 17 Sudoeste 0 1001.5 -0.1 67
2019-05-20 06:00:00 10.4 7 Oeste 13 Sudoeste 0 1001.4 -0.5 73
2019-05-20 05:00:00 11 7 Oeste 15 Sudoeste 0 1001.5 -0.6 67
2019-05-20 04:00:00 11.6 9 Oeste 17 Oeste 0 1001.6 -0.6 64
2019-05-20 03:00:00 12.8 10 Sudoeste 18 Sudoeste 0 1001.9 -0.1 58
2019-05-20 02:00:00 12.1 9 Oeste 15 Oeste 0 1002.1 0.7 66
2019-05-20 01:00:00 12.9 5 Oeste 11 Sudoeste 0 1002.2 1.7 64
2019-05-20 00:00:00 14.5 6 Sudoeste 13 Oeste 0 1002 2.2 58
2019-05-19 23:00:00 15.8 7 Sudoeste 10 Sudoeste 0 1001.4 2.5 54
2019-05-19 22:00:00 18.1 2 Sudeste 16 Sudeste 0 1000.5 2.2 45
2019-05-19 21:00:00 19.8 10 Norte 17 Norte 0 999.8 1.5 41
2019-05-19 20:00:00 22.5 10 Nordeste 15 Nordeste 0 998.9 0.9 31
2019-05-19 19:00:00 22.4 9 Este 16 Este 0 998.3 0 26
2019-05-19 18:00:00 22.3 11 Nordeste 16 Nordeste 0 998.3 -0.2 29
2019-05-19 17:00:00 22 10 Este 22 Oeste 0 998 -0.8 28
2019-05-19 16:00:00 23.8 11 Oeste 32 Oeste 0 998.3 -0.9 21
2019-05-19 15:00:00 23.3 12 Oeste 30 Oeste 0 998.5 -1.4 21
2019-05-19 14:00:00 24.2 19 Noroeste 40 Oeste 0 998.8 -1.5 19
2019-05-19 13:00:00 24.2 12 Oeste 22 Noroeste 0 999.2 -1.3 22
2019-05-19 12:00:00 20.9 8 Oeste 17 Norte 0 999.9 -0.8 29
2019-05-19 11:00:00 18.6 4 Norte 10 Nordeste 0 1000.3 -0.1 43
2019-05-19 10:00:00 17.8 3 Sudeste 12 Este 0 1000.5 0.4 48
2019-05-19 09:00:00 12.4 6 Sudoeste 18 Oeste 0 1000.7 0.8 71
2019-05-19 08:00:00 11.1 9 Oeste 16 Oeste 0 1000.4 0.6 78
2019-05-19 07:00:00 11.1 9 Sudoeste 17 Sudoeste 0 1000.1 -0.1 77
2019-05-19 06:00:00 9.8 5 Oeste 13 Oeste 0 999.9 -0.5 86
2019-05-19 05:00:00 9.9 7 Oeste 15 Oeste 0 999.8 -0.8 85
2019-05-19 04:00:00 10.9 7 Oeste 15 Oeste 0 1000.2 -0.3 81
2019-05-19 03:00:00 11.2 8 Oeste 14 Oeste 0 1000.4 0.2 82
2019-05-19 02:00:00 12.7 8 Sudoeste 13 Sudoeste 0 1000.6 0.9 79
2019-05-19 01:00:00 13.7 2 Sudoeste 12 Norte 0 1000.5 1.6 78
2019-05-19 00:00:00 14.2 5 Sudoeste 13 Oeste 0 1000.2 1.8 73
2019-05-18 23:00:00 14.7 8 Oeste 14 Oeste 0 999.7 1.6 71
2019-05-18 22:00:00 17.5 5 Sur 14 Sur 0 998.9 1.1 59
2019-05-18 21:00:00 19.8 6 Sur 16 Sur 0 998.4 0.8 48
2019-05-18 20:00:00 21.7 2 Oeste 14 Norte 0 998.1 0.9 40
2019-05-18 19:00:00 20.1 8 Norte 19 Norte 0 997.8 0 43
2019-05-18 18:00:00 20.9 6 Sudeste 17 Sudeste 0 997.6 0.1 42
2019-05-18 17:00:00 19.2 12 Este 22 Nordeste 0.2 997.2 -0.6 51
2019-05-18 16:00:00 20 10 Nordeste 23 Este 0 997.8 -0.2 47
2019-05-18 15:00:00 19.6 18 Este 27 Este 0 997.5 -0.6 46
2019-05-18 14:00:00 20.7 11 Norte 27 Norte 0 997.8 -0.4 40
2019-05-18 13:00:00 22.6 14 Norte 31 Nordeste 0 998 -0.4 31
2019-05-18 12:00:00 21.1 8 Oeste 17 Norte 0 998.1 -0.4 33
2019-05-18 11:00:00 19.3 5 Nordeste 12 Nordeste 0 998.2 0.3 37
2019-05-18 10:00:00 17.8 4 Norte 12 Oeste 0 998.4 0.7 42
2019-05-18 09:00:00 15.2 5 Oeste 10 Oeste 0 998.5 0.8 56
2019-05-18 08:00:00 13.2 6 Sudoeste 10 Sudoeste 0 997.9 -0.1 64
2019-05-18 07:00:00 12.9 4 Sudeste 6 Sudeste 0 997.7 -0.7 61
2019-05-18 06:00:00 12.9 3 Noroeste 8 Sudoeste 0 997.7 -1.2 59
2019-05-18 05:00:00 13.7 4 Oeste 15 Oeste 0 998 -1.2 55
2019-05-18 04:00:00 13.3 7 Oeste 15 Oeste 0 998.4 -1 56
2019-05-18 03:00:00 13.4 9 Sudoeste 16 Sudoeste 0 998.9 -0.6 52
2019-05-18 02:00:00 13.2 6 Oeste 14 Oeste 0 999.2 0.1 54
2019-05-18 01:00:00 15.5 7 Sudoeste 14 Oeste 0 999.4 1.3 44
2019-05-18 00:00:00 16.3 3 Nordeste 12 Oeste 0 999.5 2.2 40
2019-05-17 23:00:00 16.7 7 Oeste 15 Oeste 0 999.1 2.4 41
2019-05-17 22:00:00 19.2 10 Oeste 37 Noroeste 0 998.1 1.8 31
2019-05-17 21:00:00 21.4 15 Noroeste 35 Oeste 0 997.3 1.5 27
2019-05-17 20:00:00 22 21 Oeste 42 Oeste 0 996.7 1.2 25
2019-05-17 19:00:00 23.8 18 Oeste 41 Noroeste 0 996.3 0.6 24
2019-05-17 18:00:00 24.7 20 Noroeste 46 Oeste 0 995.8 -0.1 23
2019-05-17 17:00:00 24.3 21 Oeste 50 Noroeste 0 995.5 -0.3 23
2019-05-17 16:00:00 25.2 26 Noroeste 53 Oeste 0 995.7 0.3 23
2019-05-17 15:00:00 23.4 22 Oeste 50 Oeste 0 995.9 0.5 26
2019-05-17 14:00:00 24.2 27 Oeste 52 Oeste 0 995.8 1.2 24
2019-05-17 13:00:00 24 28 Oeste 55 Oeste 0 995.4 1 25
2019-05-17 12:00:00 21.9 27 Oeste 48 Noroeste 0 995.4 1.5 28
2019-05-17 11:00:00 20.6 35 Oeste 63 Oeste 0 994.6 0.5 29
2019-05-17 10:00:00 19.4 30 Oeste 58 Oeste 0 994.4 0.9 32
2019-05-17 09:00:00 18.6 22 Oeste 54 Noroeste 0 993.9 1.4 36
2019-05-17 08:00:00 18.4 7 Sudoeste 26 Oeste 0 994.1 2 37
2019-05-17 07:00:00 17.7 18 Oeste 57 Oeste 0 993.5 1.5 38
2019-05-17 06:00:00 18.7 17 Oeste 50 Oeste 0 992.5 0.1 39
2019-05-17 05:00:00 15.7 9 Oeste 30 Oeste 0 992.1 -1.1 70
2019-05-17 04:00:00 15.7 5 Sudeste 14 Sudeste 0 992 -2 84
2019-05-17 03:00:00 16.2 6 Este 13 Sudeste 0 992.4 -2.3 81
2019-05-17 02:00:00 16.3 10 Este 15 Este 0 993.2 -1.9 81
2019-05-17 01:00:00 16.4 5 Este 10 Este 0 994 -1 81
2019-05-17 00:00:00 16.9 6 Este 12 Nordeste 0 994.7 -0.1 77